sensor_id;sensor_type;location;lat;lon;timestamp;temperature;humidity
41262;DHT22;29629;52.532;13.352;2022-07-29T00:01:30;17.30;99.90
41262;DHT22;29629;52.532;13.352;2022-07-29T00:03:57;17.30;99.90
41262;DHT22;29629;52.532;13.352;2022-07-29T00:06:24;17.20;99.90
41262;DHT22;29629;52.532;13.352;2022-07-29T00:08:52;17.30;99.90
41262;DHT22;29629;52.532;13.352;2022-07-29T00:11:19;17.20;99.90
41262;DHT22;29629;52.532;13.352;2022-07-29T00:13:46;17.20;99.90
41262;DHT22;29629;52.532;13.352;2022-07-29T00:16:13;17.20;99.90
41262;DHT22;29629;52.532;13.352;2022-07-29T00:18:40;17.20;99.90
41262;DHT22;29629;52.532;13.352;2022-07-29T00:21:07;17.10;99.90
41262;DHT22;29629;52.532;13.352;2022-07-29T00:23:33;17.10;99.90
41262;DHT22;29629;52.532;13.352;2022-07-29T00:26:02;17.10;99.90
41262;DHT22;29629;52.532;13.352;2022-07-29T00:28:28;17.10;99.90
41262;DHT22;29629;52.532;13.352;2022-07-29T00:30:55;17.00;99.90
41262;DHT22;29629;52.532;13.352;2022-07-29T00:33:22;17.10;99.90
41262;DHT22;29629;52.532;13.352;2022-07-29T00:35:49;17.00;99.90
41262;DHT22;29629;52.532;13.352;2022-07-29T00:38:16;17.00;99.90
41262;DHT22;29629;52.532;13.352;2022-07-29T00:40:44;17.00;99.90
41262;DHT22;29629;52.532;13.352;2022-07-29T00:43:12;17.00;99.90
41262;DHT22;29629;52.532;13.352;2022-07-29T00:45:39;17.00;99.90
41262;DHT22;29629;52.532;13.352;2022-07-29T00:48:07;16.90;99.90
41262;DHT22;29629;52.532;13.352;2022-07-29T00:50:34;16.90;99.90
41262;DHT22;29629;52.532;13.352;2022-07-29T00:53:02;16.90;99.90
41262;DHT22;29629;52.532;13.352;2022-07-29T00:55:30;16.80;99.90
41262;DHT22;29629;52.532;13.352;2022-07-29T00:57:57;16.90;99.90
41262;DHT22;29629;52.532;13.352;2022-07-29T01:00:27;16.80;99.90
41262;DHT22;29629;52.532;13.352;2022-07-29T01:02:54;16.80;99.90
41262;DHT22;29629;52.532;13.352;2022-07-29T01:05:23;16.70;99.90
41262;DHT22;29629;52.532;13.352;2022-07-29T01:07:52;16.70;99.90
41262;DHT22;29629;52.532;13.352;2022-07-29T01:10:21;16.70;99.90
41262;DHT22;29629;52.532;13.352;2022-07-29T01:12:49;16.70;99.90
41262;DHT22;29629;52.532;13.352;2022-07-29T01:15:18;16.70;99.90
41262;DHT22;29629;52.532;13.352;2022-07-29T01:17:50;16.70;99.90
41262;DHT22;29629;52.532;13.352;2022-07-29T01:20:26;16.70;99.90
41262;DHT22;29629;52.532;13.352;2022-07-29T01:23:20;16.70;99.90
41262;DHT22;29629;52.532;13.352;2022-07-29T01:26:22;16.70;99.90
41262;DHT22;29629;52.532;13.352;2022-07-29T01:29:06;16.70;99.90
41262;DHT22;29629;52.532;13.352;2022-07-29T01:31:42;16.60;99.90
41262;DHT22;29629;52.532;13.352;2022-07-29T01:34:11;16.60;99.90
41262;DHT22;29629;52.532;13.352;2022-07-29T01:36:45;16.60;99.90
41262;DHT22;29629;52.532;13.352;2022-07-29T01:39:17;16.50;99.90
41262;DHT22;29629;52.532;13.352;2022-07-29T01:41:49;16.50;99.90
41262;DHT22;29629;52.532;13.352;2022-07-29T01:44:20;16.50;99.90
41262;DHT22;29629;52.532;13.352;2022-07-29T01:46:52;16.50;99.90
41262;DHT22;29629;52.532;13.352;2022-07-29T01:49:27;16.40;99.90
41262;DHT22;29629;52.532;13.352;2022-07-29T01:51:57;16.40;99.90
41262;DHT22;29629;52.532;13.352;2022-07-29T01:54:26;16.30;99.90
41262;DHT22;29629;52.532;13.352;2022-07-29T01:56:56;16.40;99.90
41262;DHT22;29629;52.532;13.352;2022-07-29T01:59:26;16.40;99.90
41262;DHT22;29629;52.532;13.352;2022-07-29T02:01:57;16.30;99.90
41262;DHT22;29629;52.532;13.352;2022-07-29T02:04:24;16.30;99.90
41262;DHT22;29629;52.532;13.352;2022-07-29T02:06:54;16.30;99.90
41262;DHT22;29629;52.532;13.352;2022-07-29T02:09:25;16.30;99.90
41262;DHT22;29629;52.532;13.352;2022-07-29T02:11:53;16.20;99.90
41262;DHT22;29629;52.532;13.352;2022-07-29T02:14:22;16.20;99.90
41262;DHT22;29629;52.532;13.352;2022-07-29T02:16:53;16.20;99.90
41262;DHT22;29629;52.532;13.352;2022-07-29T02:19:22;16.10;99.90
41262;DHT22;29629;52.532;13.352;2022-07-29T02:21:53;16.10;99.90
41262;DHT22;29629;52.532;13.352;2022-07-29T02:24:21;16.10;99.90
41262;DHT22;29629;52.532;13.352;2022-07-29T02:26:49;16.10;99.90
41262;DHT22;29629;52.532;13.352;2022-07-29T02:29:19;16.00;99.90
41262;DHT22;29629;52.532;13.352;2022-07-29T02:31:49;16.10;99.90
41262;DHT22;29629;52.532;13.352;2022-07-29T02:34:19;16.10;99.90
41262;DHT22;29629;52.532;13.352;2022-07-29T02:36:47;16.10;99.90
41262;DHT22;29629;52.532;13.352;2022-07-29T02:39:15;16.00;99.90
41262;DHT22;29629;52.532;13.352;2022-07-29T02:41:44;16.10;99.90
41262;DHT22;29629;52.532;13.352;2022-07-29T02:44:14;16.10;99.90
41262;DHT22;29629;52.532;13.352;2022-07-29T02:46:46;16.10;99.90
41262;DHT22;29629;52.532;13.352;2022-07-29T02:49:22;16.10;99.90
41262;DHT22;29629;52.532;13.352;2022-07-29T02:51:55;16.20;99.90
41262;DHT22;29629;52.532;13.352;2022-07-29T02:54:26;16.20;99.90
41262;DHT22;29629;52.532;13.352;2022-07-29T02:56:59;16.20;99.90
41262;DHT22;29629;52.532;13.352;2022-07-29T02:59:27;16.10;99.90
41262;DHT22;29629;52.532;13.352;2022-07-29T03:01:58;16.10;99.90
41262;DHT22;29629;52.532;13.352;2022-07-29T03:04:27;16.10;99.90
41262;DHT22;29629;52.532;13.352;2022-07-29T03:06:56;16.10;99.90
41262;DHT22;29629;52.532;13.352;2022-07-29T03:09:25;16.10;99.90
41262;DHT22;29629;52.532;13.352;2022-07-29T03:11:53;16.10;99.90
41262;DHT22;29629;52.532;13.352;2022-07-29T03:14:20;16.10;99.90
41262;DHT22;29629;52.532;13.352;2022-07-29T03:16:49;16.10;99.90
41262;DHT22;29629;52.532;13.352;2022-07-29T03:19:16;16.20;99.90
41262;DHT22;29629;52.532;13.352;2022-07-29T03:21:45;16.20;99.90
41262;DHT22;29629;52.532;13.352;2022-07-29T03:24:25;16.20;99.90
41262;DHT22;29629;52.532;13.352;2022-07-29T03:26:52;16.10;99.90
41262;DHT22;29629;52.532;13.352;2022-07-29T03:29:19;16.10;99.90
41262;DHT22;29629;52.532;13.352;2022-07-29T03:31:45;16.10;99.90
41262;DHT22;29629;52.532;13.352;2022-07-29T03:34:12;16.10;99.90
41262;DHT22;29629;52.532;13.352;2022-07-29T03:36:39;16.10;99.90
41262;DHT22;29629;52.532;13.352;2022-07-29T03:39:07;16.10;99.90
41262;DHT22;29629;52.532;13.352;2022-07-29T03:41:36;16.10;99.90
41262;DHT22;29629;52.532;13.352;2022-07-29T03:44:04;16.10;99.90
41262;DHT22;29629;52.532;13.352;2022-07-29T03:46:33;16.10;99.90
41262;DHT22;29629;52.532;13.352;2022-07-29T03:49:04;16.10;99.90
41262;DHT22;29629;52.532;13.352;2022-07-29T03:51:33;16.10;99.90
41262;DHT22;29629;52.532;13.352;2022-07-29T03:54:01;16.10;99.90
41262;DHT22;29629;52.532;13.352;2022-07-29T03:56:32;16.10;99.90
41262;DHT22;29629;52.532;13.352;2022-07-29T03:59:02;16.10;99.90
41262;DHT22;29629;52.532;13.352;2022-07-29T04:01:29;16.10;99.90
41262;DHT22;29629;52.532;13.352;2022-07-29T04:03:59;16.20;99.90
41262;DHT22;29629;52.532;13.352;2022-07-29T04:06:27;16.20;99.90
41262;DHT22;29629;52.532;13.352;2022-07-29T04:08:54;16.20;99.90
41262;DHT22;29629;52.532;13.352;2022-07-29T04:11:20;16.20;99.90
41262;DHT22;29629;52.532;13.352;2022-07-29T04:13:49;16.20;99.90
41262;DHT22;29629;52.532;13.352;2022-07-29T04:16:15;16.20;99.90
41262;DHT22;29629;52.532;13.352;2022-07-29T04:18:42;16.20;99.90
41262;DHT22;29629;52.532;13.352;2022-07-29T04:21:09;16.20;99.90
41262;DHT22;29629;52.532;13.352;2022-07-29T04:23:36;16.30;99.90
41262;DHT22;29629;52.532;13.352;2022-07-29T04:26:03;16.30;99.90
41262;DHT22;29629;52.532;13.352;2022-07-29T04:28:29;16.20;99.90
41262;DHT22;29629;52.532;13.352;2022-07-29T04:30:58;16.30;99.90
41262;DHT22;29629;52.532;13.352;2022-07-29T04:33:24;16.40;99.90
41262;DHT22;29629;52.532;13.352;2022-07-29T04:35:51;16.40;99.90
41262;DHT22;29629;52.532;13.352;2022-07-29T04:38:18;16.50;99.90
41262;DHT22;29629;52.532;13.352;2022-07-29T04:40:45;16.50;99.90
41262;DHT22;29629;52.532;13.352;2022-07-29T04:43:11;16.50;99.90
41262;DHT22;29629;52.532;13.352;2022-07-29T04:45:38;16.60;99.90
41262;DHT22;29629;52.532;13.352;2022-07-29T04:48:07;16.60;99.90
41262;DHT22;29629;52.532;13.352;2022-07-29T04:50:34;16.60;99.90
41262;DHT22;29629;52.532;13.352;2022-07-29T04:53:01;16.60;99.90
41262;DHT22;29629;52.532;13.352;2022-07-29T04:55:28;16.60;99.90
41262;DHT22;29629;52.532;13.352;2022-07-29T04:57:54;16.70;99.90
41262;DHT22;29629;52.532;13.352;2022-07-29T05:00:21;16.70;99.90
41262;DHT22;29629;52.532;13.352;2022-07-29T05:02:49;16.70;99.90
41262;DHT22;29629;52.532;13.352;2022-07-29T05:05:17;16.80;99.90
41262;DHT22;29629;52.532;13.352;2022-07-29T05:07:44;16.80;99.90
41262;DHT22;29629;52.532;13.352;2022-07-29T05:10:11;16.80;99.90
41262;DHT22;29629;52.532;13.352;2022-07-29T05:12:38;16.90;99.90
41262;DHT22;29629;52.532;13.352;2022-07-29T05:15:06;17.00;99.90
41262;DHT22;29629;52.532;13.352;2022-07-29T05:17:33;17.00;99.90
41262;DHT22;29629;52.532;13.352;2022-07-29T05:20:00;17.10;99.90
41262;DHT22;29629;52.532;13.352;2022-07-29T05:22:28;17.20;99.90
41262;DHT22;29629;52.532;13.352;2022-07-29T05:24:55;17.20;99.90
41262;DHT22;29629;52.532;13.352;2022-07-29T05:27:22;17.20;99.90
41262;DHT22;29629;52.532;13.352;2022-07-29T05:29:49;17.30;99.90
41262;DHT22;29629;52.532;13.352;2022-07-29T05:32:15;17.20;99.90
41262;DHT22;29629;52.532;13.352;2022-07-29T05:34:42;17.20;99.90
41262;DHT22;29629;52.532;13.352;2022-07-29T05:37:09;17.30;99.90
41262;DHT22;29629;52.532;13.352;2022-07-29T05:39:37;17.30;99.90
41262;DHT22;29629;52.532;13.352;2022-07-29T05:42:08;17.30;99.90
41262;DHT22;29629;52.532;13.352;2022-07-29T05:44:36;17.30;99.90
41262;DHT22;29629;52.532;13.352;2022-07-29T05:47:03;17.30;99.90
41262;DHT22;29629;52.532;13.352;2022-07-29T05:49:30;17.40;99.90
41262;DHT22;29629;52.532;13.352;2022-07-29T05:51:57;17.40;99.90
41262;DHT22;29629;52.532;13.352;2022-07-29T05:54:24;17.50;99.90
41262;DHT22;29629;52.532;13.352;2022-07-29T05:56:53;17.60;99.90
41262;DHT22;29629;52.532;13.352;2022-07-29T05:59:19;17.70;99.90
41262;DHT22;29629;52.532;13.352;2022-07-29T06:01:46;17.70;99.90
41262;DHT22;29629;52.532;13.352;2022-07-29T06:04:13;17.70;99.90
41262;DHT22;29629;52.532;13.352;2022-07-29T06:06:40;17.90;99.90
41262;DHT22;29629;52.532;13.352;2022-07-29T06:09:07;18.00;99.90
41262;DHT22;29629;52.532;13.352;2022-07-29T06:11:34;18.10;99.90
41262;DHT22;29629;52.532;13.352;2022-07-29T06:14:02;18.20;99.90
41262;DHT22;29629;52.532;13.352;2022-07-29T06:16:29;18.40;99.90
41262;DHT22;29629;52.532;13.352;2022-07-29T06:18:56;18.60;99.90
41262;DHT22;29629;52.532;13.352;2022-07-29T06:21:23;18.80;99.90
41262;DHT22;29629;52.532;13.352;2022-07-29T06:23:50;19.00;99.90
41262;DHT22;29629;52.532;13.352;2022-07-29T06:26:17;19.10;99.90
41262;DHT22;29629;52.532;13.352;2022-07-29T06:28:43;19.20;99.90
41262;DHT22;29629;52.532;13.352;2022-07-29T06:31:12;19.20;99.90
41262;DHT22;29629;52.532;13.352;2022-07-29T06:33:38;19.20;99.90
41262;DHT22;29629;52.532;13.352;2022-07-29T06:36:05;19.30;99.90
41262;DHT22;29629;52.532;13.352;2022-07-29T06:38:32;19.30;99.90
41262;DHT22;29629;52.532;13.352;2022-07-29T06:41:00;19.30;99.90
41262;DHT22;29629;52.532;13.352;2022-07-29T06:43:28;19.30;99.90
41262;DHT22;29629;52.532;13.352;2022-07-29T06:45:58;19.40;99.90
41262;DHT22;29629;52.532;13.352;2022-07-29T06:48:27;19.40;99.90
41262;DHT22;29629;52.532;13.352;2022-07-29T06:50:54;19.40;99.90
41262;DHT22;29629;52.532;13.352;2022-07-29T06:53:22;19.50;99.90
41262;DHT22;29629;52.532;13.352;2022-07-29T06:55:49;19.60;99.90
41262;DHT22;29629;52.532;13.352;2022-07-29T06:58:15;19.60;99.90
41262;DHT22;29629;52.532;13.352;2022-07-29T07:00:45;19.70;99.90
41262;DHT22;29629;52.532;13.352;2022-07-29T07:03:12;19.70;99.90
41262;DHT22;29629;52.532;13.352;2022-07-29T07:05:40;19.80;99.90
41262;DHT22;29629;52.532;13.352;2022-07-29T07:08:07;19.80;99.90
41262;DHT22;29629;52.532;13.352;2022-07-29T07:10:34;20.10;99.90
41262;DHT22;29629;52.532;13.352;2022-07-29T07:13:01;20.30;99.90
41262;DHT22;29629;52.532;13.352;2022-07-29T07:15:28;20.60;99.90
41262;DHT22;29629;52.532;13.352;2022-07-29T07:17:55;20.70;99.90
41262;DHT22;29629;52.532;13.352;2022-07-29T07:20:22;21.00;99.90
41262;DHT22;29629;52.532;13.352;2022-07-29T07:22:51;21.20;99.90
41262;DHT22;29629;52.532;13.352;2022-07-29T07:25:18;21.30;99.90
41262;DHT22;29629;52.532;13.352;2022-07-29T07:27:45;21.20;99.90
41262;DHT22;29629;52.532;13.352;2022-07-29T07:30:12;21.30;99.90
41262;DHT22;29629;52.532;13.352;2022-07-29T07:32:39;21.40;99.90
41262;DHT22;29629;52.532;13.352;2022-07-29T07:35:07;21.60;99.90
41262;DHT22;29629;52.532;13.352;2022-07-29T07:37:35;21.80;99.90
41262;DHT22;29629;52.532;13.352;2022-07-29T07:40:04;22.10;99.90
41262;DHT22;29629;52.532;13.352;2022-07-29T07:42:31;22.50;99.90
41262;DHT22;29629;52.532;13.352;2022-07-29T07:44:58;22.80;99.90
41262;DHT22;29629;52.532;13.352;2022-07-29T07:47:25;23.00;99.90
41262;DHT22;29629;52.532;13.352;2022-07-29T07:49:52;23.00;99.90
41262;DHT22;29629;52.532;13.352;2022-07-29T07:52:20;23.00;99.90
41262;DHT22;29629;52.532;13.352;2022-07-29T07:54:47;23.00;99.90
41262;DHT22;29629;52.532;13.352;2022-07-29T07:57:16;23.00;99.90
41262;DHT22;29629;52.532;13.352;2022-07-29T07:59:43;23.20;99.90
41262;DHT22;29629;52.532;13.352;2022-07-29T08:02:10;23.30;99.90
41262;DHT22;29629;52.532;13.352;2022-07-29T08:04:37;23.70;99.90
41262;DHT22;29629;52.532;13.352;2022-07-29T08:07:06;23.70;99.90
41262;DHT22;29629;52.532;13.352;2022-07-29T08:09:34;24.30;99.90
41262;DHT22;29629;52.532;13.352;2022-07-29T08:12:01;24.40;99.90
41262;DHT22;29629;52.532;13.352;2022-07-29T08:14:31;24.50;99.90
41262;DHT22;29629;52.532;13.352;2022-07-29T08:16:58;24.70;99.90
41262;DHT22;29629;52.532;13.352;2022-07-29T08:19:25;24.90;99.90
41262;DHT22;29629;52.532;13.352;2022-07-29T08:21:52;25.00;99.90
41262;DHT22;29629;52.532;13.352;2022-07-29T08:24:19;24.70;99.90
41262;DHT22;29629;52.532;13.352;2022-07-29T08:27:03;24.80;99.90
41262;DHT22;29629;52.532;13.352;2022-07-29T08:29:31;24.70;99.90
41262;DHT22;29629;52.532;13.352;2022-07-29T08:31:58;24.80;99.90
41262;DHT22;29629;52.532;13.352;2022-07-29T08:34:25;25.00;99.90
41262;DHT22;29629;52.532;13.352;2022-07-29T08:36:52;25.20;99.90
41262;DHT22;29629;52.532;13.352;2022-07-29T08:39:19;25.40;99.90
41262;DHT22;29629;52.532;13.352;2022-07-29T08:41:45;25.60;99.90
41262;DHT22;29629;52.532;13.352;2022-07-29T08:44:13;25.80;99.90
41262;DHT22;29629;52.532;13.352;2022-07-29T08:46:41;25.80;99.90
41262;DHT22;29629;52.532;13.352;2022-07-29T08:49:08;26.00;99.90
41262;DHT22;29629;52.532;13.352;2022-07-29T08:51:36;26.40;99.90
41262;DHT22;29629;52.532;13.352;2022-07-29T08:54:05;26.40;99.90
41262;DHT22;29629;52.532;13.352;2022-07-29T08:56:33;26.20;99.90
41262;DHT22;29629;52.532;13.352;2022-07-29T08:59:03;26.10;99.90
41262;DHT22;29629;52.532;13.352;2022-07-29T09:01:32;25.80;99.90
41262;DHT22;29629;52.532;13.352;2022-07-29T09:04:03;25.90;99.90
41262;DHT22;29629;52.532;13.352;2022-07-29T09:06:32;26.10;99.90
41262;DHT22;29629;52.532;13.352;2022-07-29T09:09:01;26.20;99.90
41262;DHT22;29629;52.532;13.352;2022-07-29T09:11:27;26.10;99.90
41262;DHT22;29629;52.532;13.352;2022-07-29T09:13:54;26.50;99.90
41262;DHT22;29629;52.532;13.352;2022-07-29T09:16:21;26.60;99.90
41262;DHT22;29629;52.532;13.352;2022-07-29T09:18:48;27.00;99.90
41262;DHT22;29629;52.532;13.352;2022-07-29T09:21:17;27.20;99.90
41262;DHT22;29629;52.532;13.352;2022-07-29T09:24:06;27.70;99.90
41262;DHT22;29629;52.532;13.352;2022-07-29T09:26:36;28.50;99.90
41262;DHT22;29629;52.532;13.352;2022-07-29T09:29:09;28.70;99.90
41262;DHT22;29629;52.532;13.352;2022-07-29T09:31:38;28.90;99.90
41262;DHT22;29629;52.532;13.352;2022-07-29T09:34:06;29.10;99.90
41262;DHT22;29629;52.532;13.352;2022-07-29T09:36:40;29.30;99.90
41262;DHT22;29629;52.532;13.352;2022-07-29T09:39:08;29.30;99.90
41262;DHT22;29629;52.532;13.352;2022-07-29T09:41:45;29.30;99.90
41262;DHT22;29629;52.532;13.352;2022-07-29T09:44:12;29.00;99.90
41262;DHT22;29629;52.532;13.352;2022-07-29T09:46:40;28.70;99.90
41262;DHT22;29629;52.532;13.352;2022-07-29T09:49:09;28.50;99.90
41262;DHT22;29629;52.532;13.352;2022-07-29T09:51:36;28.30;99.90
41262;DHT22;29629;52.532;13.352;2022-07-29T09:54:21;28.00;99.90
41262;DHT22;29629;52.532;13.352;2022-07-29T09:56:49;27.80;99.90
41262;DHT22;29629;52.532;13.352;2022-07-29T09:59:18;27.60;99.90
41262;DHT22;29629;52.532;13.352;2022-07-29T10:01:46;27.70;99.60
41262;DHT22;29629;52.532;13.352;2022-07-29T10:04:13;28.80;99.00
41262;DHT22;29629;52.532;13.352;2022-07-29T10:06:55;29.60;99.90
41262;DHT22;29629;52.532;13.352;2022-07-29T10:09:23;30.00;98.60
41262;DHT22;29629;52.532;13.352;2022-07-29T10:12:03;30.60;99.90
41262;DHT22;29629;52.532;13.352;2022-07-29T10:14:31;30.20;97.80
41262;DHT22;29629;52.532;13.352;2022-07-29T10:16:59;30.70;98.70
41262;DHT22;29629;52.532;13.352;2022-07-29T10:19:27;31.70;97.20
41262;DHT22;29629;52.532;13.352;2022-07-29T10:21:55;32.40;96.70
41262;DHT22;29629;52.532;13.352;2022-07-29T10:24:24;32.20;94.30
41262;DHT22;29629;52.532;13.352;2022-07-29T10:26:52;31.60;92.90
41262;DHT22;29629;52.532;13.352;2022-07-29T10:29:20;31.10;93.50
41262;DHT22;29629;52.532;13.352;2022-07-29T10:31:52;29.70;93.40
41262;DHT22;29629;52.532;13.352;2022-07-29T10:34:30;29.30;94.30
41262;DHT22;29629;52.532;13.352;2022-07-29T10:37:07;28.60;94.00
41262;DHT22;29629;52.532;13.352;2022-07-29T10:39:47;28.50;95.10
41262;DHT22;29629;52.532;13.352;2022-07-29T10:42:18;28.50;94.90
41262;DHT22;29629;52.532;13.352;2022-07-29T10:44:47;28.60;95.30
41262;DHT22;29629;52.532;13.352;2022-07-29T10:47:22;29.90;94.20
41262;DHT22;29629;52.532;13.352;2022-07-29T10:49:56;30.30;94.80
41262;DHT22;29629;52.532;13.352;2022-07-29T10:52:24;29.90;93.20
41262;DHT22;29629;52.532;13.352;2022-07-29T10:54:54;29.70;94.50
41262;DHT22;29629;52.532;13.352;2022-07-29T10:57:26;29.80;93.50
41262;DHT22;29629;52.532;13.352;2022-07-29T11:00:27;29.60;93.80
41262;DHT22;29629;52.532;13.352;2022-07-29T11:02:54;28.90;93.80
41262;DHT22;29629;52.532;13.352;2022-07-29T11:05:23;28.80;94.50
41262;DHT22;29629;52.532;13.352;2022-07-29T11:08:18;29.00;95.00
41262;DHT22;29629;52.532;13.352;2022-07-29T11:10:48;29.30;93.70
41262;DHT22;29629;52.532;13.352;2022-07-29T11:13:47;28.80;93.40
41262;DHT22;29629;52.532;13.352;2022-07-29T11:16:16;28.60;94.00
41262;DHT22;29629;52.532;13.352;2022-07-29T11:19:21;28.20;94.30
41262;DHT22;29629;52.532;13.352;2022-07-29T11:21:48;29.90;95.40
41262;DHT22;29629;52.532;13.352;2022-07-29T11:24:21;31.30;92.50
41262;DHT22;29629;52.532;13.352;2022-07-29T11:27:13;32.70;92.10
41262;DHT22;29629;52.532;13.352;2022-07-29T11:29:48;34.10;91.80
41262;DHT22;29629;52.532;13.352;2022-07-29T11:32:17;34.30;90.50
41262;DHT22;29629;52.532;13.352;2022-07-29T11:34:45;35.30;90.70
41262;DHT22;29629;52.532;13.352;2022-07-29T11:37:23;35.10;85.60
41262;DHT22;29629;52.532;13.352;2022-07-29T11:40:14;34.60;84.90
41262;DHT22;29629;52.532;13.352;2022-07-29T11:42:49;35.00;84.50
41262;DHT22;29629;52.532;13.352;2022-07-29T11:45:21;35.70;85.10
41262;DHT22;29629;52.532;13.352;2022-07-29T11:47:55;36.30;87.20
41262;DHT22;29629;52.532;13.352;2022-07-29T11:50:32;36.10;81.00
41262;DHT22;29629;52.532;13.352;2022-07-29T11:53:01;36.00;80.80
41262;DHT22;29629;52.532;13.352;2022-07-29T11:55:28;35.80;80.70
41262;DHT22;29629;52.532;13.352;2022-07-29T11:57:59;36.00;83.60
41262;DHT22;29629;52.532;13.352;2022-07-29T12:00:29;36.60;81.50
41262;DHT22;29629;52.532;13.352;2022-07-29T12:02:57;35.70;81.10
41262;DHT22;29629;52.532;13.352;2022-07-29T12:05:36;35.90;81.70
41262;DHT22;29629;52.532;13.352;2022-07-29T12:08:11;36.30;80.70
41262;DHT22;29629;52.532;13.352;2022-07-29T12:10:39;36.20;81.00
41262;DHT22;29629;52.532;13.352;2022-07-29T12:13:08;35.90;82.10
41262;DHT22;29629;52.532;13.352;2022-07-29T12:15:35;36.10;80.50
41262;DHT22;29629;52.532;13.352;2022-07-29T12:18:15;35.90;79.90
41262;DHT22;29629;52.532;13.352;2022-07-29T12:20:43;35.70;80.10
41262;DHT22;29629;52.532;13.352;2022-07-29T12:23:11;35.60;80.40
41262;DHT22;29629;52.532;13.352;2022-07-29T12:25:40;35.20;81.80
41262;DHT22;29629;52.532;13.352;2022-07-29T12:28:10;35.80;84.60
41262;DHT22;29629;52.532;13.352;2022-07-29T12:30:43;34.70;82.90
41262;DHT22;29629;52.532;13.352;2022-07-29T12:33:12;35.20;83.50
41262;DHT22;29629;52.532;13.352;2022-07-29T12:35:40;34.60;81.40
41262;DHT22;29629;52.532;13.352;2022-07-29T12:38:09;35.10;80.80
41262;DHT22;29629;52.532;13.352;2022-07-29T12:40:37;35.50;82.80
41262;DHT22;29629;52.532;13.352;2022-07-29T12:43:10;35.40;82.40
41262;DHT22;29629;52.532;13.352;2022-07-29T12:45:38;35.60;81.80
41262;DHT22;29629;52.532;13.352;2022-07-29T12:48:06;36.40;81.30
41262;DHT22;29629;52.532;13.352;2022-07-29T12:50:34;36.60;82.10
41262;DHT22;29629;52.532;13.352;2022-07-29T12:53:09;36.50;82.10
41262;DHT22;29629;52.532;13.352;2022-07-29T12:55:44;35.90;82.00
41262;DHT22;29629;52.532;13.352;2022-07-29T12:58:26;35.60;80.00
41262;DHT22;29629;52.532;13.352;2022-07-29T13:01:05;34.40;81.40
41262;DHT22;29629;52.532;13.352;2022-07-29T13:03:43;33.90;83.20
41262;DHT22;29629;52.532;13.352;2022-07-29T13:06:35;34.80;82.30
41262;DHT22;29629;52.532;13.352;2022-07-29T13:09:08;34.20;82.20
41262;DHT22;29629;52.532;13.352;2022-07-29T13:11:37;33.40;83.60
41262;DHT22;29629;52.532;13.352;2022-07-29T13:14:07;32.80;83.60
41262;DHT22;29629;52.532;13.352;2022-07-29T13:16:35;32.00;84.00
41262;DHT22;29629;52.532;13.352;2022-07-29T13:19:04;31.50;84.70
41262;DHT22;29629;52.532;13.352;2022-07-29T13:21:31;32.20;85.70
41262;DHT22;29629;52.532;13.352;2022-07-29T13:23:58;32.50;84.70
41262;DHT22;29629;52.532;13.352;2022-07-29T13:26:25;32.90;85.30
41262;DHT22;29629;52.532;13.352;2022-07-29T13:28:53;32.40;87.90
41262;DHT22;29629;52.532;13.352;2022-07-29T13:31:21;31.20;85.40
41262;DHT22;29629;52.532;13.352;2022-07-29T13:33:48;30.30;87.50
41262;DHT22;29629;52.532;13.352;2022-07-29T13:36:15;30.30;89.20
41262;DHT22;29629;52.532;13.352;2022-07-29T13:38:42;30.60;88.30
41262;DHT22;29629;52.532;13.352;2022-07-29T13:41:09;30.40;88.20
41262;DHT22;29629;52.532;13.352;2022-07-29T13:43:35;30.50;88.30
41262;DHT22;29629;52.532;13.352;2022-07-29T13:46:02;30.20;89.40
41262;DHT22;29629;52.532;13.352;2022-07-29T13:48:31;29.80;89.40
41262;DHT22;29629;52.532;13.352;2022-07-29T13:50:58;29.70;90.10
41262;DHT22;29629;52.532;13.352;2022-07-29T13:53:24;29.60;89.50
41262;DHT22;29629;52.532;13.352;2022-07-29T13:55:53;29.30;90.10
41262;DHT22;29629;52.532;13.352;2022-07-29T13:58:20;29.30;90.60
41262;DHT22;29629;52.532;13.352;2022-07-29T14:00:47;29.30;90.40
41262;DHT22;29629;52.532;13.352;2022-07-29T14:03:14;29.20;91.30
41262;DHT22;29629;52.532;13.352;2022-07-29T14:05:42;28.90;91.30
41262;DHT22;29629;52.532;13.352;2022-07-29T14:08:09;28.70;91.50
41262;DHT22;29629;52.532;13.352;2022-07-29T14:10:35;28.90;91.40
41262;DHT22;29629;52.532;13.352;2022-07-29T14:13:02;29.00;92.00
41262;DHT22;29629;52.532;13.352;2022-07-29T14:15:29;28.80;91.70
41262;DHT22;29629;52.532;13.352;2022-07-29T14:17:56;28.70;91.50
41262;DHT22;29629;52.532;13.352;2022-07-29T14:20:23;28.60;91.30
41262;DHT22;29629;52.532;13.352;2022-07-29T14:22:51;28.50;92.00
41262;DHT22;29629;52.532;13.352;2022-07-29T14:25:18;28.60;92.00
41262;DHT22;29629;52.532;13.352;2022-07-29T14:27:45;28.80;92.20
41262;DHT22;29629;52.532;13.352;2022-07-29T14:30:12;28.90;92.90
41262;DHT22;29629;52.532;13.352;2022-07-29T14:32:39;29.00;92.00
41262;DHT22;29629;52.532;13.352;2022-07-29T14:35:07;29.10;92.60
41262;DHT22;29629;52.532;13.352;2022-07-29T14:37:34;29.00;92.40
41262;DHT22;29629;52.532;13.352;2022-07-29T14:40:04;28.70;91.80
41262;DHT22;29629;52.532;13.352;2022-07-29T14:42:31;28.50;92.50
41262;DHT22;29629;52.532;13.352;2022-07-29T14:44:58;28.40;92.50
41262;DHT22;29629;52.532;13.352;2022-07-29T14:47:25;28.30;92.70
41262;DHT22;29629;52.532;13.352;2022-07-29T14:49:52;28.40;93.00
41262;DHT22;29629;52.532;13.352;2022-07-29T14:52:19;28.30;92.70
41262;DHT22;29629;52.532;13.352;2022-07-29T14:54:45;28.20;93.00
41262;DHT22;29629;52.532;13.352;2022-07-29T14:57:13;28.10;93.10
41262;DHT22;29629;52.532;13.352;2022-07-29T14:59:40;27.90;93.40
41262;DHT22;29629;52.532;13.352;2022-07-29T15:02:07;27.80;93.40
41262;DHT22;29629;52.532;13.352;2022-07-29T15:04:37;27.60;93.30
41262;DHT22;29629;52.532;13.352;2022-07-29T15:07:07;27.50;93.30
41262;DHT22;29629;52.532;13.352;2022-07-29T15:09:34;27.50;93.50
41262;DHT22;29629;52.532;13.352;2022-07-29T15:12:00;27.50;93.60
41262;DHT22;29629;52.532;13.352;2022-07-29T15:14:29;27.40;93.70
41262;DHT22;29629;52.532;13.352;2022-07-29T15:16:57;27.50;93.60
41262;DHT22;29629;52.532;13.352;2022-07-29T15:19:24;27.50;93.60
41262;DHT22;29629;52.532;13.352;2022-07-29T15:21:51;27.50;93.40
41262;DHT22;29629;52.532;13.352;2022-07-29T15:24:18;27.50;93.60
41262;DHT22;29629;52.532;13.352;2022-07-29T15:26:45;27.50;93.30
41262;DHT22;29629;52.532;13.352;2022-07-29T15:29:13;27.50;93.30